createdAt,value
2022-11-04T00:01:48.073Z,9.81
2022-11-04T00:04:18.060Z,9.78
2022-11-04T00:06:45.930Z,9.78
2022-11-04T00:09:17.523Z,9.78
2022-11-04T00:12:03.772Z,9.76
2022-11-04T00:14:34.136Z,9.77
2022-11-04T00:17:20.832Z,9.75
2022-11-04T00:20:31.432Z,9.74
2022-11-04T00:23:17.700Z,9.71
2022-11-04T00:26:20.401Z,9.70
2022-11-04T00:28:48.191Z,9.72
2022-11-04T00:31:34.254Z,9.70
2022-11-04T00:34:01.868Z,9.68
2022-11-04T00:36:29.554Z,9.68
2022-11-04T00:38:57.165Z,9.68
2022-11-04T00:41:28.270Z,9.67
2022-11-04T00:44:01.542Z,9.67
2022-11-04T00:46:32.195Z,9.63
2022-11-04T00:49:00.768Z,9.63
2022-11-04T00:51:28.864Z,9.62
2022-11-04T00:53:57.031Z,9.61
2022-11-04T00:56:24.889Z,9.59
2022-11-04T00:58:53.156Z,9.59
2022-11-04T01:01:21.329Z,9.56
2022-11-04T01:03:51.379Z,9.56
2022-11-04T01:06:20.500Z,9.56
2022-11-04T01:08:49.187Z,9.56
2022-11-04T01:11:17.903Z,9.53
2022-11-04T01:13:45.510Z,9.54
2022-11-04T01:16:14.208Z,9.55
2022-11-04T01:18:42.127Z,9.56
2022-11-04T01:21:12.791Z,9.55
2022-11-04T01:23:42.182Z,9.57
2022-11-04T01:26:13.338Z,9.58
2022-11-04T01:28:41.134Z,9.59
2022-11-04T01:31:10.309Z,9.58
2022-11-04T01:33:38.792Z,9.59
2022-11-04T01:36:08.308Z,9.61
2022-11-04T01:38:36.377Z,9.60
2022-11-04T01:41:06.969Z,9.61
2022-11-04T01:43:53.033Z,9.60
2022-11-04T01:46:26.527Z,9.59
2022-11-04T01:48:57.371Z,9.58
2022-11-04T01:51:25.080Z,9.54
2022-11-04T01:53:56.188Z,9.55
2022-11-04T01:56:25.055Z,9.54
2022-11-04T01:58:57.496Z,9.54
2022-11-04T02:01:25.270Z,9.55
2022-11-04T02:04:20.164Z,9.52
2022-11-04T02:06:49.494Z,9.49
2022-11-04T02:09:19.443Z,9.49
2022-11-04T02:12:06.060Z,9.47
2022-11-04T02:14:36.095Z,9.44
2022-11-04T02:17:09.496Z,9.44
2022-11-04T02:19:58.552Z,9.37
2022-11-04T02:22:56.368Z,9.34
2022-11-04T02:25:51.719Z,9.32
2022-11-04T02:28:56.054Z,9.29
2022-11-04T02:31:38.508Z,9.27
2022-11-04T02:34:37.975Z,9.20
2022-11-04T02:37:25.371Z,9.18
2022-11-04T02:40:04.959Z,9.12
2022-11-04T02:42:43.532Z,9.11
2022-11-04T02:45:33.159Z,9.12
2022-11-04T02:48:15.895Z,9.01
2022-11-04T02:50:54.670Z,9.02
2022-11-04T02:53:28.653Z,9.04
2022-11-04T02:55:59.833Z,8.99
2022-11-04T02:58:37.332Z,8.94
2022-11-04T03:01:07.890Z,8.95
2022-11-04T03:03:42.489Z,8.92
2022-11-04T03:06:12.436Z,8.92
2022-11-04T03:08:47.604Z,8.92
2022-11-04T03:11:18.293Z,8.91
2022-11-04T03:13:55.439Z,8.90
2022-11-04T03:16:39.005Z,8.90
2022-11-04T03:19:25.409Z,8.87
2022-11-04T03:22:02.157Z,8.84
2022-11-04T03:24:30.990Z,8.77
2022-11-04T03:27:02.036Z,8.78
2022-11-04T03:29:50.083Z,8.75
2022-11-04T03:32:29.243Z,8.74
2022-11-04T03:34:57.152Z,8.72
2022-11-04T03:37:24.839Z,8.69
2022-11-04T03:39:52.467Z,8.67
2022-11-04T03:42:22.320Z,8.65
2022-11-04T03:44:55.727Z,8.66
2022-11-04T03:47:28.968Z,8.65
2022-11-04T03:50:19.753Z,8.65
2022-11-04T03:52:47.556Z,8.63
2022-11-04T03:55:15.451Z,8.62
2022-11-04T03:57:43.033Z,8.60
2022-11-04T04:00:15.336Z,8.58
2022-11-04T04:03:07.883Z,8.58
2022-11-04T04:05:48.780Z,8.58
2022-11-04T04:08:26.710Z,8.57
2022-11-04T04:11:08.524Z,8.55
2022-11-04T04:14:05.191Z,8.57
2022-11-04T04:16:42.680Z,8.55
2022-11-04T04:19:18.134Z,8.54
2022-11-04T04:22:00.194Z,8.54
2022-11-04T04:24:52.410Z,8.51
2022-11-04T04:27:34.363Z,8.52
2022-11-04T04:30:15.290Z,8.52
2022-11-04T04:32:47.060Z,8.51
2022-11-04T04:35:33.973Z,8.53
2022-11-04T04:38:23.904Z,8.55
2022-11-04T04:41:17.424Z,8.56
2022-11-04T04:44:04.305Z,8.52
2022-11-04T04:46:33.251Z,8.55
2022-11-04T04:49:10.807Z,8.54
2022-11-04T04:51:45.552Z,8.51
2022-11-04T04:54:13.550Z,8.52
2022-11-04T04:56:41.586Z,8.53
2022-11-04T04:59:09.254Z,8.52
2022-11-04T05:01:36.957Z,8.54
2022-11-04T05:04:04.679Z,8.52
2022-11-04T05:06:32.273Z,8.54
2022-11-04T05:09:00.004Z,8.54
2022-11-04T05:11:27.782Z,8.53
2022-11-04T05:13:55.541Z,8.55
2022-11-04T05:16:23.205Z,8.57
2022-11-04T05:18:52.981Z,8.58
2022-11-04T05:21:20.704Z,8.58
2022-11-04T05:23:48.336Z,8.58
2022-11-04T05:26:16.293Z,8.60
2022-11-04T05:28:44.055Z,8.60
2022-11-04T05:31:12.002Z,8.61
2022-11-04T05:33:39.692Z,8.61
2022-11-04T05:36:13.006Z,8.64
2022-11-04T05:38:41.459Z,8.64
2022-11-04T05:41:11.893Z,8.65
2022-11-04T05:43:39.741Z,8.66
2022-11-04T05:46:07.327Z,8.67
2022-11-04T05:48:40.154Z,8.66
2022-11-04T05:51:08.304Z,8.70
2022-11-04T05:53:35.959Z,8.69
2022-11-04T05:56:03.593Z,8.67
2022-11-04T05:58:31.198Z,8.65
2022-11-04T06:01:15.633Z,8.64
2022-11-04T06:03:43.530Z,8.61
2022-11-04T06:06:11.461Z,8.58
2022-11-04T06:08:44.882Z,8.59
2022-11-04T06:11:12.932Z,8.59
2022-11-04T06:13:40.529Z,8.58
2022-11-04T06:16:08.752Z,8.59
2022-11-04T06:18:36.436Z,8.60
2022-11-04T06:21:23.423Z,8.59
2022-11-04T06:23:51.058Z,8.59
2022-11-04T06:26:21.606Z,8.60
2022-11-04T06:28:51.483Z,8.64
2022-11-04T06:31:20.188Z,8.68
2022-11-04T06:33:48.175Z,8.69
2022-11-04T06:36:17.539Z,8.72
2022-11-04T06:38:45.438Z,8.73
2022-11-04T06:41:16.216Z,8.73
2022-11-04T06:43:44.152Z,8.73
2022-11-04T06:46:27.252Z,8.77
2022-11-04T06:48:56.176Z,8.78
2022-11-04T06:51:24.653Z,8.85
2022-11-04T06:53:52.324Z,8.90
2022-11-04T06:56:20.040Z,8.93
2022-11-04T06:58:55.590Z,8.98
2022-11-04T07:01:25.662Z,8.99
2022-11-04T07:03:55.320Z,9.06
2022-11-04T07:06:23.578Z,9.07
2022-11-04T07:08:52.936Z,9.12
2022-11-04T07:11:23.095Z,9.13
2022-11-04T07:13:50.754Z,9.06
2022-11-04T07:16:19.668Z,9.07
2022-11-04T07:18:47.648Z,9.02
2022-11-04T07:21:15.262Z,9.01
2022-11-04T07:23:42.896Z,9.04
2022-11-04T07:26:12.381Z,9.12
2022-11-04T07:28:40.342Z,9.20
2022-11-04T07:31:09.989Z,9.28
2022-11-04T07:33:38.003Z,9.37
2022-11-04T07:36:12.399Z,9.42
2022-11-04T07:38:39.997Z,9.49
2022-11-04T07:41:08.263Z,9.57
2022-11-04T07:43:36.118Z,9.61
2022-11-04T07:46:08.376Z,9.67
2022-11-04T07:48:37.741Z,9.77
2022-11-04T07:51:08.002Z,9.82
2022-11-04T07:53:35.727Z,9.88
2022-11-04T07:56:09.120Z,9.91
2022-11-04T07:58:36.787Z,9.95
2022-11-04T08:01:10.994Z,10.01
2022-11-04T08:03:39.275Z,10.06
2022-11-04T08:06:08.221Z,10.11
2022-11-04T08:08:36.269Z,10.16
2022-11-04T08:11:16.844Z,10.18
2022-11-04T08:13:45.579Z,10.17
2022-11-04T08:16:15.842Z,10.16
2022-11-04T08:18:44.322Z,10.17
2022-11-04T08:21:12.961Z,10.19
2022-11-04T08:23:40.982Z,10.18
2022-11-04T08:26:11.021Z,10.19
2022-11-04T08:28:39.129Z,10.17
2022-11-04T08:31:14.929Z,10.20
2022-11-04T08:33:43.121Z,10.22
2022-11-04T08:36:20.368Z,10.19
2022-11-04T08:38:48.604Z,10.23
2022-11-04T08:41:18.788Z,10.26
2022-11-04T08:43:47.993Z,10.31
2022-11-04T08:46:16.181Z,10.33
2022-11-04T08:48:44.919Z,10.34
2022-11-04T08:51:21.918Z,10.39
2022-11-04T08:53:49.980Z,10.40
2022-11-04T08:56:24.182Z,10.46
2022-11-04T08:58:52.202Z,10.54
2022-11-04T09:01:21.861Z,10.56
2022-11-04T09:03:50.499Z,10.63
2022-11-04T09:06:26.323Z,10.66
2022-11-04T09:08:56.438Z,10.70
2022-11-04T09:11:24.975Z,10.77
2022-11-04T09:13:52.696Z,10.83
2022-11-04T09:16:20.384Z,10.89
2022-11-04T09:18:48.030Z,10.96
2022-11-04T09:21:15.640Z,11.05
2022-11-04T09:23:43.209Z,11.14
2022-11-04T09:26:16.630Z,11.21
2022-11-04T09:28:44.488Z,11.27
2022-11-04T09:31:15.212Z,11.38
2022-11-04T09:33:43.097Z,11.39
2022-11-04T09:36:12.488Z,11.43
2022-11-04T09:38:41.837Z,11.47
2022-11-04T09:41:41.845Z,11.51
2022-11-04T09:44:21.403Z,11.53
2022-11-04T09:46:50.600Z,11.54
2022-11-04T09:49:18.435Z,11.58
2022-11-04T09:51:56.400Z,11.67
2022-11-04T09:54:44.354Z,11.70
2022-11-04T09:57:18.907Z,11.78
2022-11-04T09:59:47.700Z,11.80
2022-11-04T10:02:29.134Z,11.83
2022-11-04T10:05:08.806Z,11.85
2022-11-04T10:07:45.867Z,11.85
2022-11-04T10:10:19.129Z,11.93
2022-11-04T10:12:58.167Z,11.90
2022-11-04T10:15:55.926Z,11.98
2022-11-04T10:19:25.161Z,11.99
2022-11-04T10:22:11.332Z,12.07
2022-11-04T10:24:58.263Z,12.09
2022-11-04T10:27:34.229Z,12.16
2022-11-04T10:30:14.940Z,12.12
2022-11-04T10:33:11.341Z,12.10
2022-11-04T10:35:45.536Z,12.08
2022-11-04T10:38:28.502Z,12.07
2022-11-04T10:40:56.784Z,12.10
2022-11-04T10:43:34.257Z,12.16
2022-11-04T10:46:20.391Z,12.21
2022-11-04T10:49:35.913Z,12.22
2022-11-04T10:52:03.812Z,12.26
2022-11-04T10:54:44.553Z,12.35
2022-11-04T10:57:14.311Z,12.37
2022-11-04T10:59:58.369Z,12.22
2022-11-04T11:02:38.121Z,12.23
2022-11-04T11:05:23.479Z,12.21
2022-11-04T11:07:54.400Z,12.22
2022-11-04T11:10:31.635Z,12.30
2022-11-04T11:13:05.892Z,12.36
2022-11-04T11:15:39.197Z,12.39
2022-11-04T11:18:17.156Z,12.45
2022-11-04T11:21:07.028Z,12.51
2022-11-04T11:23:39.421Z,12.63
2022-11-04T11:26:14.149Z,12.71
2022-11-04T11:28:42.862Z,12.79
2022-11-04T11:31:24.421Z,12.82
2022-11-04T11:33:56.570Z,12.87
2022-11-04T11:36:31.550Z,12.86
2022-11-04T11:39:06.659Z,12.79
2022-11-04T11:41:55.397Z,12.77
2022-11-04T11:44:38.047Z,12.61
2022-11-04T11:47:08.220Z,12.49
2022-11-04T11:49:39.118Z,12.45
2022-11-04T11:52:25.384Z,12.45
2022-11-04T11:54:58.244Z,12.45
2022-11-04T11:57:46.566Z,12.49
2022-11-04T12:00:41.115Z,12.53
2022-11-04T12:06:28.768Z,12.58
2022-11-04T12:09:19.287Z,12.51
2022-11-04T12:12:12.145Z,12.48
2022-11-04T12:14:58.337Z,12.44
2022-11-04T12:17:41.054Z,12.46
2022-11-04T12:20:15.152Z,12.50
2022-11-04T12:22:57.165Z,12.56
2022-11-04T12:25:49.815Z,12.57
2022-11-04T12:28:35.950Z,12.63
2022-11-04T12:31:18.704Z,12.69
2022-11-04T12:33:51.924Z,12.77
2022-11-04T12:36:29.449Z,12.85
2022-11-04T12:39:10.412Z,12.89
2022-11-04T12:42:23.721Z,12.89
2022-11-04T12:45:07.697Z,12.92
2022-11-04T12:47:42.586Z,12.95
2022-11-04T12:50:31.738Z,12.96
2022-11-04T12:53:21.216Z,12.98
2022-11-04T12:55:54.615Z,12.98
2022-11-04T12:58:46.287Z,12.95
2022-11-04T13:01:24.655Z,12.93
2022-11-04T13:04:23.125Z,12.93
2022-11-04T13:07:05.130Z,12.90
2022-11-04T13:09:38.839Z,12.89
2022-11-04T13:12:18.775Z,12.89
2022-11-04T13:15:01.734Z,12.82
2022-11-04T13:17:38.827Z,12.79
2022-11-04T13:20:16.286Z,12.74
2022-11-04T13:22:48.271Z,12.70
2022-11-04T13:25:25.559Z,12.68
2022-11-04T13:27:53.630Z,12.66
2022-11-04T13:30:49.057Z,12.64
2022-11-04T13:33:34.424Z,12.61
2022-11-04T13:36:08.793Z,12.55
2022-11-04T13:38:41.834Z,12.53
2022-11-04T13:41:28.336Z,12.50
2022-11-04T13:44:02.520Z,12.47
2022-11-04T13:46:35.655Z,12.43
2022-11-04T13:49:17.194Z,12.41
2022-11-04T13:51:47.716Z,12.41
2022-11-04T13:54:33.444Z,12.37
2022-11-04T13:57:22.325Z,12.37
2022-11-04T14:00:14.284Z,12.36
2022-11-04T14:02:47.453Z,12.35
2022-11-04T14:05:30.592Z,12.35
2022-11-04T14:08:03.741Z,12.34
2022-11-04T14:10:43.525Z,12.35
2022-11-04T14:13:32.699Z,12.37
2022-11-04T14:16:25.370Z,12.38
2022-11-04T14:18:55.002Z,12.34
2022-11-04T14:21:26.493Z,12.32
2022-11-04T14:23:57.439Z,12.33
2022-11-04T14:26:28.725Z,12.26
2022-11-04T14:29:26.527Z,12.24
2022-11-04T14:31:58.089Z,12.20
2022-11-04T14:34:27.359Z,12.14
2022-11-04T14:37:00.638Z,12.12
2022-11-04T14:39:41.404Z,12.09
2022-11-04T14:42:14.824Z,12.05
2022-11-04T14:44:53.109Z,12.02
2022-11-04T14:47:32.054Z,11.99
2022-11-04T14:49:59.589Z,11.98
2022-11-04T14:52:31.368Z,11.98
2022-11-04T14:55:27.643Z,11.97
2022-11-04T14:57:57.798Z,12.00
2022-11-04T15:00:31.341Z,12.04
2022-11-04T15:03:01.876Z,12.06
2022-11-04T15:05:30.887Z,12.08
2022-11-04T15:07:58.609Z,12.08
2022-11-04T15:10:29.003Z,12.08
2022-11-04T15:13:02.916Z,12.08
2022-11-04T15:15:45.821Z,12.12
2022-11-04T15:18:20.871Z,12.12
2022-11-04T15:20:53.939Z,12.16
2022-11-04T15:23:30.069Z,12.18
2022-11-04T15:25:59.425Z,12.17
2022-11-04T15:28:30.927Z,12.10
2022-11-04T15:31:03.165Z,12.07
2022-11-04T15:33:35.721Z,12.02
2022-11-04T15:36:04.112Z,11.98
2022-11-04T15:38:32.420Z,11.99
2022-11-04T15:41:20.593Z,11.97
2022-11-04T15:43:48.635Z,11.94
2022-11-04T15:46:19.776Z,11.89
2022-11-04T15:49:07.788Z,11.83
2022-11-04T15:51:42.754Z,11.78
2022-11-04T15:54:55.789Z,11.71
2022-11-04T15:57:30.558Z,11.64
2022-11-04T16:00:23.320Z,11.55
2022-11-04T16:02:56.712Z,11.50
2022-11-04T16:05:34.376Z,11.45
2022-11-04T16:08:28.763Z,11.41
2022-11-04T16:11:17.961Z,11.37
2022-11-04T16:13:47.540Z,11.35
2022-11-04T16:16:15.119Z,11.34
2022-11-04T16:18:53.563Z,11.30
2022-11-04T16:21:35.494Z,11.29
2022-11-04T16:24:06.072Z,11.30
2022-11-04T16:26:42.897Z,11.30
2022-11-04T16:29:17.240Z,11.31
2022-11-04T16:31:44.870Z,11.30
2022-11-04T16:34:15.650Z,11.28
2022-11-04T16:36:43.397Z,11.25
2022-11-04T16:39:10.988Z,11.24
2022-11-04T16:41:41.244Z,11.21
2022-11-04T16:44:20.223Z,11.15
2022-11-04T16:46:47.846Z,11.11
2022-11-04T16:49:17.340Z,11.07
2022-11-04T16:51:45.995Z,11.03
2022-11-04T16:54:13.604Z,11.00
2022-11-04T16:56:41.312Z,10.98
2022-11-04T16:59:12.722Z,10.96
2022-11-04T17:01:41.032Z,10.95
2022-11-04T17:04:09.452Z,10.92
2022-11-04T17:06:37.806Z,10.91
2022-11-04T17:09:18.904Z,10.89
2022-11-04T17:11:46.582Z,10.85
2022-11-04T17:14:14.289Z,10.79
2022-11-04T17:16:41.968Z,10.77
2022-11-04T17:19:20.594Z,10.74
2022-11-04T17:21:48.357Z,10.71
2022-11-04T17:24:16.084Z,10.70
2022-11-04T17:26:43.784Z,10.66
2022-11-04T17:29:16.944Z,10.66
2022-11-04T17:31:45.110Z,10.64
2022-11-04T17:34:13.169Z,10.60
2022-11-04T17:36:40.874Z,10.59
2022-11-04T17:39:08.523Z,10.57
2022-11-04T17:41:54.752Z,10.55
2022-11-04T17:44:22.432Z,10.54
2022-11-04T17:46:50.149Z,10.52
2022-11-04T17:49:20.179Z,10.53
2022-11-04T17:51:50.559Z,10.52
2022-11-04T17:54:18.554Z,10.54
2022-11-04T17:56:46.582Z,10.54
2022-11-04T17:59:15.853Z,10.55
2022-11-04T18:01:45.297Z,10.51
2022-11-04T18:04:19.174Z,10.49
2022-11-04T18:06:46.891Z,10.47
2022-11-04T18:09:16.137Z,10.45
2022-11-04T18:12:03.132Z,10.45
2022-11-04T18:14:32.227Z,10.45
2022-11-04T18:16:59.977Z,10.39
2022-11-04T18:19:28.850Z,10.29
2022-11-04T18:21:56.852Z,10.25
2022-11-04T18:24:25.137Z,10.16
2022-11-04T18:26:53.351Z,10.07
2022-11-04T18:29:21.645Z,10.02
2022-11-04T18:31:50.721Z,9.97
2022-11-04T18:34:20.474Z,9.93
2022-11-04T18:36:49.648Z,9.94
2022-11-04T18:39:19.484Z,9.95
2022-11-04T18:41:47.592Z,9.92
2022-11-04T18:44:21.822Z,9.89
2022-11-04T18:46:51.006Z,9.87
2022-11-04T18:49:19.512Z,9.86
2022-11-04T18:51:47.932Z,9.85
2022-11-04T18:54:16.166Z,9.83
2022-11-04T18:56:43.988Z,9.85
2022-11-04T18:59:13.993Z,9.83
2022-11-04T19:01:43.050Z,9.83
2022-11-04T19:04:10.807Z,9.80
2022-11-04T19:06:42.665Z,9.75
2022-11-04T19:09:44.915Z,9.69
2022-11-04T19:12:23.461Z,9.59
2022-11-04T19:14:51.060Z,9.57
2022-11-04T19:17:18.797Z,9.56
2022-11-04T19:19:47.022Z,9.58
2022-11-04T19:22:14.689Z,9.61
2022-11-04T19:24:42.344Z,9.60
2022-11-04T19:27:10.032Z,9.62
2022-11-04T19:29:37.757Z,9.62
2022-11-04T19:32:11.087Z,9.63
2022-11-04T19:34:40.613Z,9.67
2022-11-04T19:37:08.323Z,9.65
2022-11-04T19:39:36.005Z,9.59
2022-11-04T19:42:23.201Z,9.56
2022-11-04T19:44:50.878Z,9.54
2022-11-04T19:47:18.626Z,9.46
2022-11-04T19:49:46.402Z,9.41
2022-11-04T19:52:14.351Z,9.40
2022-11-04T19:54:41.984Z,9.40
2022-11-04T19:57:09.621Z,9.37
2022-11-04T19:59:37.279Z,9.37
2022-11-04T20:02:05.178Z,9.35
2022-11-04T20:04:32.921Z,9.35
2022-11-04T20:07:00.643Z,9.32
2022-11-04T20:09:28.262Z,9.31
2022-11-04T20:12:14.720Z,9.28
2022-11-04T20:14:42.429Z,9.29
2022-11-04T20:17:10.170Z,9.27
2022-11-04T20:19:37.835Z,9.27
2022-11-04T20:22:05.685Z,9.26
2022-11-04T20:24:33.507Z,9.19
2022-11-04T20:27:01.135Z,9.20
2022-11-04T20:29:28.870Z,9.23
2022-11-04T20:31:56.574Z,9.21
2022-11-04T20:34:27.603Z,9.24
2022-11-04T20:36:57.900Z,9.22
2022-11-04T20:39:25.470Z,9.20
2022-11-04T20:41:53.595Z,9.18
2022-11-04T20:44:21.301Z,9.11
2022-11-04T20:46:48.999Z,9.10
2022-11-04T20:49:16.686Z,9.05
2022-11-04T20:51:51.657Z,8.95
2022-11-04T20:54:21.989Z,8.97
2022-11-04T20:56:49.680Z,8.94
2022-11-04T20:59:18.116Z,8.94
2022-11-04T21:01:47.512Z,8.91
2022-11-04T21:04:20.039Z,8.86
2022-11-04T21:06:49.553Z,8.80
2022-11-04T21:09:19.942Z,8.75
2022-11-04T21:11:47.948Z,8.78
2022-11-04T21:14:17.488Z,8.74
2022-11-04T21:16:45.284Z,8.67
2022-11-04T21:19:13.524Z,8.69
2022-11-04T21:21:43.063Z,8.66
2022-11-04T21:24:13.959Z,8.67
2022-11-04T21:26:41.841Z,8.66
2022-11-04T21:29:12.679Z,8.65
2022-11-04T21:31:40.695Z,8.66
2022-11-04T21:34:08.553Z,8.68
2022-11-04T21:36:36.771Z,8.73
2022-11-04T21:39:04.750Z,8.75
2022-11-04T21:41:38.368Z,8.76
2022-11-04T21:44:09.697Z,8.76
2022-11-04T21:46:37.922Z,8.78
2022-11-04T21:49:06.276Z,8.79
2022-11-04T21:51:35.310Z,8.75
2022-11-04T21:54:06.769Z,8.74
2022-11-04T21:56:34.476Z,8.74
2022-11-04T21:59:02.433Z,8.76
2022-11-04T22:01:31.829Z,8.77
2022-11-04T22:04:01.906Z,8.72
2022-11-04T22:06:34.709Z,8.70
2022-11-04T22:09:05.680Z,8.69
2022-11-04T22:11:34.770Z,8.63
2022-11-04T22:14:05.428Z,8.55
2022-11-04T22:16:35.763Z,8.52
2022-11-04T22:19:05.715Z,8.49
2022-11-04T22:21:34.899Z,8.46
2022-11-04T22:24:02.628Z,8.45
2022-11-04T22:26:33.878Z,8.41
2022-11-04T22:29:01.783Z,8.41
2022-11-04T22:31:35.576Z,8.39
2022-11-04T22:34:06.089Z,8.37
2022-11-04T22:36:35.242Z,8.35
2022-11-04T22:39:02.969Z,8.37
2022-11-04T22:41:32.974Z,8.36
2022-11-04T22:44:00.885Z,8.32
2022-11-04T22:46:31.468Z,8.32
2022-11-04T22:49:00.668Z,8.28
2022-11-04T22:51:28.848Z,8.24
2022-11-04T22:54:01.440Z,8.23
2022-11-04T22:56:32.372Z,8.23
2022-11-04T22:59:01.385Z,8.18
2022-11-04T23:01:29.167Z,8.18
2022-11-04T23:03:56.887Z,8.16
2022-11-04T23:06:26.016Z,8.12
2022-11-04T23:09:00.066Z,8.08
2022-11-04T23:11:47.818Z,7.99
2022-11-04T23:14:36.537Z,7.98
2022-11-04T23:17:30.528Z,7.93
2022-11-04T23:19:58.172Z,7.85
2022-11-04T23:22:44.379Z,7.78
2022-11-04T23:25:13.714Z,7.79
2022-11-04T23:28:04.164Z,7.76
2022-11-04T23:30:35.271Z,7.75
2022-11-04T23:33:06.117Z,7.74
2022-11-04T23:35:55.296Z,7.72
2022-11-04T23:38:23.671Z,7.68
2022-11-04T23:41:16.413Z,7.63
2022-11-04T23:43:44.167Z,7.62
2022-11-04T23:46:30.996Z,7.58
2022-11-04T23:49:17.429Z,7.57
2022-11-04T23:52:03.912Z,7.57
2022-11-04T23:54:50.323Z,7.53
2022-11-04T23:57:38.371Z,7.50
